Time,TemperatureF,DewpointF,PressureIn,WindDirection,WindDirectionDegrees,WindSpeedMPH,WindSpeedGustMPH,Humidity,HourlyPrecipIn,Conditions,Clouds,dailyrainin,SoftwareType,DateUTC
2013-02-03 00:03:00,24.1,20.5,30.27,NW,315,9.0,22.0,86,0.00,,,0.00,Weather View 32 v70,2013-02-03 06:03:00,
2013-02-03 00:08:00,23.9,20.0,30.27,WNW,292,6.0,22.0,85,0.00,,,0.00,Weather View 32 v70,2013-02-03 06:08:00,
2013-02-03 00:13:00,23.9,20.3,30.28,NW,315,10.0,22.0,86,0.00,,,0.00,Weather View 32 v70,2013-02-03 06:13:00,
2013-02-03 00:18:00,23.9,20.6,30.28,SSW,202,1.0,22.0,87,0.00,,,0.00,Weather View 32 v70,2013-02-03 06:18:00,
2013-02-03 00:23:00,23.7,20.1,30.28,NW,315,12.0,16.0,86,0.00,,,0.00,Weather View 32 v70,2013-02-03 06:23:00,
2013-02-03 00:28:00,23.7,20.4,30.29,NW,315,8.0,16.0,87,0.00,,,0.00,Weather View 32 v70,2013-02-03 06:28:00,
2013-02-03 00:33:00,23.6,20.3,30.28,NW,315,10.0,16.0,87,0.00,,,0.00,Weather View 32 v70,2013-02-03 06:33:00,
2013-02-03 00:38:00,23.5,20.5,30.29,NW,315,9.0,17.0,88,0.00,,,0.00,Weather View 32 v70,2013-02-03 06:38:00,
2013-02-03 00:43:00,23.5,20.2,30.29,NW,315,9.0,17.0,87,0.00,,,0.00,Weather View 32 v70,2013-02-03 06:43:00,
2013-02-03 00:48:00,23.3,20.3,30.29,WNW,292,10.0,17.0,88,0.00,,,0.00,Weather View 32 v70,2013-02-03 06:48:00,
2013-02-03 00:53:00,23.1,20.1,30.29,WNW,292,9.0,17.0,88,0.00,,,0.00,Weather View 32 v70,2013-02-03 06:53:00,
2013-02-03 00:58:00,22.9,20.1,30.29,NW,315,10.0,17.0,89,0.00,,,0.00,Weather View 32 v70,2013-02-03 06:58:00,
2013-02-03 01:03:00,22.8,20.0,30.28,NW,315,12.0,17.0,89,0.00,,,0.00,Weather View 32 v70,2013-02-03 07:03:00,
2013-02-03 01:08:00,22.5,20.0,30.28,WSW,247,1.0,17.0,90,0.00,,,0.00,Weather View 32 v70,2013-02-03 07:08:00,
2013-02-03 01:14:00,22.4,20.2,30.28,NW,315,7.0,17.0,91,0.00,,,0.00,Weather View 32 v70,2013-02-03 07:14:00,
2013-02-03 01:19:00,22.1,20.1,30.29,West,270,6.0,17.0,92,0.00,,,0.00,Weather View 32 v70,2013-02-03 07:19:00,
2013-02-03 01:24:00,21.9,19.9,30.29,WNW,292,9.0,17.0,92,0.00,,,0.00,Weather View 32 v70,2013-02-03 07:24:00,
2013-02-03 01:29:00,22.1,19.1,30.29,SSW,202,4.0,23.0,88,0.00,,,0.00,Weather View 32 v70,2013-02-03 07:29:00,
2013-02-03 01:34:00,22.3,18.8,30.30,West,270,12.0,23.0,86,0.00,,,0.00,Weather View 32 v70,2013-02-03 07:34:00,
2013-02-03 01:39:00,22.3,18.5,30.31,WNW,292,12.0,23.0,85,0.00,,,0.00,Weather View 32 v70,2013-02-03 07:39:00,
2013-02-03 01:44:00,22.2,18.4,30.30,SW,225,6.0,23.0,85,0.00,,,0.00,Weather View 32 v70,2013-02-03 07:44:00,
2013-02-03 01:49:00,22.2,18.4,30.32,WNW,292,7.0,23.0,85,0.00,,,0.00,Weather View 32 v70,2013-02-03 07:49:00,
2013-02-03 01:54:00,22.0,18.5,30.32,WNW,292,9.0,23.0,86,0.00,,,0.00,Weather View 32 v70,2013-02-03 07:54:00,
2013-02-03 01:59:00,21.9,18.4,30.32,NW,315,6.0,23.0,86,0.00,,,0.00,Weather View 32 v70,2013-02-03 07:59:00,
2013-02-03 02:04:00,21.7,18.2,30.31,WNW,292,7.0,23.0,86,0.00,,,0.00,Weather View 32 v70,2013-02-03 08:04:00,
2013-02-03 02:09:00,21.5,18.0,30.32,WNW,292,7.0,23.0,86,0.00,,,0.00,Weather View 32 v70,2013-02-03 08:09:00,
2013-02-03 02:14:00,21.4,17.9,30.30,NW,315,14.0,23.0,86,0.00,,,0.00,Weather View 32 v70,2013-02-03 08:14:00,
2013-02-03 02:19:00,21.1,17.8,30.32,NW,315,7.0,23.0,87,0.00,,,0.00,Weather View 32 v70,2013-02-03 08:19:00,
2013-02-03 02:24:00,20.9,17.9,30.33,NW,315,6.0,23.0,88,0.00,,,0.00,Weather View 32 v70,2013-02-03 08:24:00,
2013-02-03 02:29:00,20.5,18.0,30.32,NW,315,11.0,23.0,90,0.00,,,0.00,Weather View 32 v70,2013-02-03 08:29:00,
2013-02-03 02:34:00,20.2,17.7,30.33,NW,315,12.0,23.0,90,0.00,,,0.00,Weather View 32 v70,2013-02-03 08:34:00,
2013-02-03 02:39:00,20.1,17.4,30.32,NW,315,12.0,21.0,89,0.00,,,0.00,Weather View 32 v70,2013-02-03 08:39:00,
2013-02-03 02:44:00,20.0,17.0,30.32,NW,315,11.0,21.0,88,0.00,,,0.00,Weather View 32 v70,2013-02-03 08:44:00,
2013-02-03 02:49:00,19.9,16.7,30.32,NW,315,12.0,21.0,87,0.00,,,0.00,Weather View 32 v70,2013-02-03 08:49:00,
2013-02-03 02:54:00,19.7,16.5,30.31,NW,315,16.0,21.0,87,0.00,,,0.00,Weather View 32 v70,2013-02-03 08:54:00,
2013-02-03 02:59:00,19.6,16.6,30.31,NW,315,16.0,21.0,88,0.00,,,0.00,Weather View 32 v70,2013-02-03 08:59:00,
2013-02-03 03:04:00,19.5,16.3,30.31,NW,315,16.0,21.0,87,0.00,,,0.00,Weather View 32 v70,2013-02-03 09:04:00,
2013-02-03 03:09:00,19.3,16.1,30.31,NW,315,16.0,21.0,87,0.00,,,0.00,Weather View 32 v70,2013-02-03 09:09:00,
2013-02-03 03:14:00,19.1,15.9,30.31,WNW,292,14.0,19.0,87,0.00,,,0.00,Weather View 32 v70,2013-02-03 09:14:00,
2013-02-03 03:19:00,18.9,15.7,30.32,NW,315,12.0,19.0,87,0.00,,,0.00,Weather View 32 v70,2013-02-03 09:19:00,
2013-02-03 03:24:00,18.8,15.6,30.31,NW,315,15.0,19.0,87,0.00,,,0.00,Weather View 32 v70,2013-02-03 09:24:00,
2013-02-03 03:29:00,18.7,15.5,30.32,NW,315,12.0,19.0,87,0.00,,,0.00,Weather View 32 v70,2013-02-03 09:29:00,
2013-02-03 03:34:00,18.4,15.4,30.32,NNW,337,9.0,19.0,88,0.00,,,0.00,Weather View 32 v70,2013-02-03 09:34:00,
2013-02-03 03:39:00,18.2,15.0,30.32,NW,315,8.0,19.0,87,0.00,,,0.00,Weather View 32 v70,2013-02-03 09:39:00,
2013-02-03 03:44:00,18.0,15.1,30.32,WNW,292,6.0,19.0,88,0.00,,,0.00,Weather View 32 v70,2013-02-03 09:44:00,
2013-02-03 03:49:00,17.9,14.7,30.32,West,270,4.0,19.0,87,0.00,,,0.00,Weather View 32 v70,2013-02-03 09:49:00,
2013-02-03 03:54:00,17.8,14.9,30.32,NW,315,4.0,19.0,88,0.00,,,0.00,Weather View 32 v70,2013-02-03 09:54:00,
2013-02-03 03:59:00,17.6,14.7,30.32,NW,315,6.0,19.0,88,0.00,,,0.00,Weather View 32 v70,2013-02-03 09:59:00,
2013-02-03 04:04:00,17.4,14.7,30.32,WNW,292,2.0,18.0,89,0.00,,,0.00,Weather View 32 v70,2013-02-03 10:04:00,
2013-02-03 04:09:00,17.3,14.6,30.32,West,270,3.0,17.0,89,0.00,,,0.00,Weather View 32 v70,2013-02-03 10:09:00,
2013-02-03 04:14:00,17.0,14.6,30.32,West,270,4.0,17.0,90,0.00,,,0.00,Weather View 32 v70,2013-02-03 10:14:00,
2013-02-03 04:19:00,17.0,14.6,30.32,West,270,7.0,17.0,90,0.00,,,0.00,Weather View 32 v70,2013-02-03 10:19:00,
2013-02-03 04:24:00,17.1,14.4,30.32,NW,315,8.0,17.0,89,0.00,,,0.00,Weather View 32 v70,2013-02-03 10:24:00,
2013-02-03 04:29:00,17.4,14.2,30.31,WNW,292,8.0,12.0,87,0.00,,,0.00,Weather View 32 v70,2013-02-03 10:29:00,
2013-02-03 04:34:00,17.6,13.9,30.32,West,270,4.0,12.0,85,0.00,,,0.00,Weather View 32 v70,2013-02-03 10:34:00,
2013-02-03 04:39:00,17.7,13.7,30.33,West,270,2.0,11.0,84,0.00,,,0.00,Weather View 32 v70,2013-02-03 10:39:00,
2013-02-03 04:44:00,17.5,13.8,30.33,WNW,292,9.0,11.0,85,0.00,,,0.00,Weather View 32 v70,2013-02-03 10:44:00,
2013-02-03 04:49:00,17.5,13.5,30.33,West,270,4.0,11.0,84,0.00,,,0.00,Weather View 32 v70,2013-02-03 10:49:00,
2013-02-03 04:54:00,17.7,13.1,30.33,WNW,292,5.0,11.0,82,0.00,,,0.00,Weather View 32 v70,2013-02-03 10:54:00,
2013-02-03 04:59:00,17.7,13.1,30.34,WSW,247,2.0,11.0,82,0.00,,,0.00,Weather View 32 v70,2013-02-03 10:59:00,
2013-02-03 05:04:00,17.7,13.1,30.33,WNW,292,4.0,11.0,82,0.00,,,0.00,Weather View 32 v70,2013-02-03 11:04:00,
2013-02-03 05:09:00,17.7,12.6,30.33,WNW,292,8.0,11.0,80,0.00,,,0.00,Weather View 32 v70,2013-02-03 11:09:00,
2013-02-03 05:14:00,17.6,12.2,30.33,West,270,2.0,13.0,79,0.00,,,0.00,Weather View 32 v70,2013-02-03 11:14:00,
2013-02-03 05:19:00,17.5,12.1,30.33,WNW,292,7.0,13.0,79,0.00,,,0.00,Weather View 32 v70,2013-02-03 11:19:00,
2013-02-03 05:24:00,17.4,12.3,30.33,WNW,292,4.0,13.0,80,0.00,,,0.00,Weather View 32 v70,2013-02-03 11:24:00,
2013-02-03 05:29:00,17.2,12.1,30.32,West,270,4.0,13.0,80,0.00,,,0.00,Weather View 32 v70,2013-02-03 11:29:00,
2013-02-03 05:34:00,17.1,11.7,30.32,West,270,3.0,13.0,79,0.00,,,0.00,Weather View 32 v70,2013-02-03 11:34:00,
2013-02-03 05:39:00,16.9,11.5,30.32,WNW,292,2.0,13.0,79,0.00,,,0.00,Weather View 32 v70,2013-02-03 11:39:00,
2013-02-03 05:44:00,16.9,11.8,30.32,WNW,292,2.0,13.0,80,0.00,,,0.00,Weather View 32 v70,2013-02-03 11:44:00,
2013-02-03 05:49:00,16.8,11.7,30.32,WNW,292,1.0,13.0,80,0.00,,,0.00,Weather View 32 v70,2013-02-03 11:49:00,
2013-02-03 05:54:00,16.5,11.7,30.32,WNW,292,1.0,13.0,81,0.00,,,0.00,Weather View 32 v70,2013-02-03 11:54:00,
2013-02-03 05:59:00,16.3,11.8,30.32,WNW,292,2.0,13.0,82,0.00,,,0.00,Weather View 32 v70,2013-02-03 11:59:00,
2013-02-03 06:04:00,16.1,11.3,30.33,WNW,292,0.0,13.0,81,0.00,,,0.00,Weather View 32 v70,2013-02-03 12:04:00,
2013-02-03 06:09:00,15.8,11.3,30.33,WNW,292,0.0,13.0,82,0.00,,,0.00,Weather View 32 v70,2013-02-03 12:09:00,
2013-02-03 06:14:00,15.4,10.9,30.32,North,360,2.0,12.0,82,0.00,,,0.00,Weather View 32 v70,2013-02-03 12:14:00,
2013-02-03 06:19:00,15.2,11.0,30.32,North,360,2.0,11.0,83,0.00,,,0.00,Weather View 32 v70,2013-02-03 12:19:00,
2013-02-03 06:24:00,15.1,10.9,30.32,North,360,2.0,9.0,83,0.00,,,0.00,Weather View 32 v70,2013-02-03 12:24:00,
2013-02-03 06:29:00,15.1,10.9,30.32,North,360,2.0,7.0,83,0.00,,,0.00,Weather View 32 v70,2013-02-03 12:29:00,
2013-02-03 06:34:00,15.2,11.2,30.32,North,360,1.0,6.0,84,0.00,,,0.00,Weather View 32 v70,2013-02-03 12:34:00,
2013-02-03 06:39:00,15.1,11.1,30.31,NNE,22,1.0,5.0,84,0.00,,,0.00,Weather View 32 v70,2013-02-03 12:39:00,
2013-02-03 06:44:00,14.9,10.9,30.31,NNE,22,0.0,4.0,84,0.00,,,0.00,Weather View 32 v70,2013-02-03 12:44:00,
2013-02-03 06:49:00,14.6,11.2,30.31,NNE,22,1.0,3.0,86,0.00,,,0.00,Weather View 32 v70,2013-02-03 12:49:00,
2013-02-03 06:54:00,14.2,11.0,30.31,NNE,22,0.0,3.0,87,0.00,,,0.00,Weather View 32 v70,2013-02-03 12:54:00,
2013-02-03 06:59:00,13.8,10.9,30.30,NNE,22,0.0,3.0,88,0.00,,,0.00,Weather View 32 v70,2013-02-03 12:59:00,
2013-02-03 07:04:00,13.6,11.0,30.30,NNE,22,0.0,3.0,89,0.00,,,0.00,Weather View 32 v70,2013-02-03 13:04:00,
2013-02-03 07:09:00,13.6,11.2,30.29,NNE,22,0.0,3.0,90,0.00,,,0.00,Weather View 32 v70,2013-02-03 13:09:00,
2013-02-03 07:14:00,13.7,11.3,30.29,NE,45,0.0,3.0,90,0.00,,,0.00,Weather View 32 v70,2013-02-03 13:14:00,
2013-02-03 07:19:00,13.8,11.4,30.29,ESE,112,1.0,2.0,90,0.00,,,0.00,Weather View 32 v70,2013-02-03 13:19:00,
2013-02-03 07:24:00,13.9,11.5,30.29,ESE,112,1.0,2.0,90,0.00,,,0.00,Weather View 32 v70,2013-02-03 13:24:00,
2013-02-03 07:29:00,13.9,11.5,30.29,ESE,112,1.0,2.0,90,0.00,,,0.00,Weather View 32 v70,2013-02-03 13:29:00,
2013-02-03 07:34:00,14.2,11.6,30.29,ESE,112,2.0,2.0,89,0.00,,,0.00,Weather View 32 v70,2013-02-03 13:34:00,
2013-02-03 07:39:00,14.5,11.9,30.29,ESE,112,1.0,2.0,89,0.00,,,0.00,Weather View 32 v70,2013-02-03 13:39:00,
2013-02-03 07:44:00,14.8,11.9,30.29,ESE,112,0.0,2.0,88,0.00,,,0.00,Weather View 32 v70,2013-02-03 13:44:00,
2013-02-03 07:49:00,15.1,11.9,30.29,ESE,112,1.0,2.0,87,0.00,,,0.00,Weather View 32 v70,2013-02-03 13:49:00,
2013-02-03 07:54:00,15.5,12.6,30.29,SE,135,1.0,2.0,88,0.00,,,0.00,Weather View 32 v70,2013-02-03 13:54:00,
2013-02-03 07:59:00,15.6,12.7,30.29,SE,135,1.0,2.0,88,0.00,,,0.00,Weather View 32 v70,2013-02-03 13:59:00,
2013-02-03 08:04:00,15.7,12.5,30.28,SE,135,1.0,2.0,87,0.00,,,0.00,Weather View 32 v70,2013-02-03 14:04:00,
2013-02-03 08:09:00,15.8,12.6,30.29,SE,135,2.0,2.0,87,0.00,,,0.00,Weather View 32 v70,2013-02-03 14:09:00,
2013-02-03 08:14:00,15.9,12.7,30.28,SE,135,3.0,4.0,87,0.00,,,0.00,Weather View 32 v70,2013-02-03 14:14:00,
2013-02-03 08:19:00,16.2,13.0,30.29,SE,135,2.0,4.0,87,0.00,,,0.00,Weather View 32 v70,2013-02-03 14:19:00,
2013-02-03 08:24:00,16.5,13.3,30.29,SE,135,2.0,4.0,87,0.00,,,0.00,Weather View 32 v70,2013-02-03 14:24:00,
2013-02-03 08:29:00,16.8,13.6,30.28,SE,135,2.0,4.0,87,0.00,,,0.00,Weather View 32 v70,2013-02-03 14:29:00,
2013-02-03 08:34:00,16.8,13.6,30.28,SE,135,2.0,4.0,87,0.00,,,0.00,Weather View 32 v70,2013-02-03 14:34:00,
2013-02-03 08:39:00,17.2,13.7,30.28,SE,135,2.0,4.0,86,0.00,,,0.00,Weather View 32 v70,2013-02-03 14:39:00,
2013-02-03 08:44:00,18.1,15.1,30.28,SE,135,1.0,4.0,88,0.00,,,0.00,Weather View 32 v70,2013-02-03 14:44:00,
2013-02-03 08:49:00,18.7,14.9,30.28,SE,135,1.0,4.0,85,0.00,,,0.00,Weather View 32 v70,2013-02-03 14:49:00,
2013-02-03 08:54:00,18.9,14.9,30.28,SSE,157,1.0,4.0,84,0.00,,,0.00,Weather View 32 v70,2013-02-03 14:54:00,
2013-02-03 08:59:00,19.0,15.0,30.28,SE,135,2.0,4.0,84,0.00,,,0.00,Weather View 32 v70,2013-02-03 14:59:00,
2013-02-03 09:04:00,19.9,15.6,30.27,SE,135,1.0,4.0,83,0.00,,,0.00,Weather View 32 v70,2013-02-03 15:04:00,
2013-02-03 09:09:00,20.8,15.9,30.27,SSE,157,1.0,4.0,81,0.00,,,0.00,Weather View 32 v70,2013-02-03 15:09:00,
2013-02-03 09:14:00,21.4,15.9,30.26,South,180,2.0,4.0,79,0.00,,,0.00,Weather View 32 v70,2013-02-03 15:14:00,
2013-02-03 09:19:00,21.6,16.1,30.25,South,180,4.0,6.0,79,0.00,,,0.00,Weather View 32 v70,2013-02-03 15:19:00,
2013-02-03 09:24:00,21.9,16.4,30.25,South,180,5.0,6.0,79,0.00,,,0.00,Weather View 32 v70,2013-02-03 15:24:00,
2013-02-03 09:29:00,22.4,17.2,30.25,South,180,1.0,6.0,80,0.00,,,0.00,Weather View 32 v70,2013-02-03 15:29:00,
2013-02-03 09:35:00,23.1,17.3,30.24,SE,135,1.0,6.0,78,0.00,,,0.00,Weather View 32 v70,2013-02-03 15:35:00,
2013-02-03 09:40:00,23.9,18.0,30.24,South,180,1.0,6.0,78,0.00,,,0.00,Weather View 32 v70,2013-02-03 15:40:00,
2013-02-03 09:45:00,24.6,18.1,30.24,South,180,2.0,6.0,76,0.00,,,0.00,Weather View 32 v70,2013-02-03 15:45:00,
2013-02-03 09:50:00,25.2,18.4,30.24,ESE,112,2.0,6.0,75,0.00,,,0.00,Weather View 32 v70,2013-02-03 15:50:00,
2013-02-03 09:55:00,26.1,18.6,30.24,SSW,202,1.0,6.0,73,0.00,,,0.00,Weather View 32 v70,2013-02-03 15:55:00,
2013-02-03 10:00:00,26.5,19.3,30.24,SSE,157,3.0,6.0,74,0.00,,,0.00,Weather View 32 v70,2013-02-03 16:00:00,
2013-02-03 10:05:00,26.8,19.0,30.22,South,180,2.0,6.0,72,0.00,,,0.00,Weather View 32 v70,2013-02-03 16:05:00,
2013-02-03 10:10:00,27.3,19.5,30.22,South,180,2.0,6.0,72,0.00,,,0.00,Weather View 32 v70,2013-02-03 16:10:00,
2013-02-03 10:15:00,28.2,20.0,30.22,SE,135,1.0,6.0,71,0.00,,,0.00,Weather View 32 v70,2013-02-03 16:15:00,
2013-02-03 10:20:00,28.7,19.8,30.21,South,180,2.0,7.0,69,0.00,,,0.00,Weather View 32 v70,2013-02-03 16:20:00,
2013-02-03 10:25:00,28.8,20.2,30.21,South,180,5.0,9.0,70,0.00,,,0.00,Weather View 32 v70,2013-02-03 16:25:00,
2013-02-03 10:30:00,29.3,21.1,30.21,South,180,2.0,9.0,71,0.00,,,0.00,Weather View 32 v70,2013-02-03 16:30:00,
2013-02-03 10:35:00,30.1,21.5,30.21,South,180,3.0,9.0,70,0.00,,,0.00,Weather View 32 v70,2013-02-03 16:35:00,
2013-02-03 10:40:00,30.6,22.0,30.21,South,180,2.0,9.0,70,0.00,,,0.00,Weather View 32 v70,2013-02-03 16:40:00,
2013-02-03 10:45:00,31.5,22.2,30.20,SE,135,2.0,9.0,68,0.00,,,0.00,Weather View 32 v70,2013-02-03 16:45:00,
2013-02-03 10:50:00,32.1,22.7,30.20,SSE,157,1.0,9.0,68,0.00,,,0.00,Weather View 32 v70,2013-02-03 16:50:00,
2013-02-03 10:55:00,32.5,23.1,30.20,South,180,1.0,9.0,68,0.00,,,0.00,Weather View 32 v70,2013-02-03 16:55:00,
2013-02-03 11:00:00,32.3,23.3,30.20,SE,135,6.0,9.0,69,0.00,,,0.00,Weather View 32 v70,2013-02-03 17:00:00,
2013-02-03 11:05:00,33.1,23.7,30.20,South,180,4.0,9.0,68,0.00,,,0.00,Weather View 32 v70,2013-02-03 17:05:00,
2013-02-03 11:10:00,33.2,24.1,30.20,SE,135,4.0,9.0,69,0.00,,,0.00,Weather View 32 v70,2013-02-03 17:10:00,
2013-02-03 11:15:00,33.5,24.1,30.20,South,180,3.0,9.0,68,0.00,,,0.00,Weather View 32 v70,2013-02-03 17:15:00,
2013-02-03 11:20:00,34.3,24.1,30.19,SSE,157,2.0,9.0,66,0.00,,,0.00,Weather View 32 v70,2013-02-03 17:20:00,
2013-02-03 11:25:00,35.2,23.9,30.19,SSW,202,2.0,9.0,63,0.00,,,0.00,Weather View 32 v70,2013-02-03 17:25:00,
2013-02-03 11:30:00,35.8,23.7,30.19,SSW,202,2.0,8.0,61,0.00,,,0.00,Weather View 32 v70,2013-02-03 17:30:00,
2013-02-03 11:35:00,36.2,24.0,30.18,SSW,202,2.0,9.0,61,0.00,,,0.00,Weather View 32 v70,2013-02-03 17:35:00,
2013-02-03 11:40:00,36.7,23.3,30.18,South,180,4.0,9.0,58,0.00,,,0.00,Weather View 32 v70,2013-02-03 17:40:00,
2013-02-03 11:45:00,36.9,22.2,30.18,South,180,4.0,9.0,55,0.00,,,0.00,Weather View 32 v70,2013-02-03 17:45:00,
2013-02-03 11:50:00,37.5,22.3,30.17,East,90,6.0,9.0,54,0.00,,,0.00,Weather View 32 v70,2013-02-03 17:50:00,
2013-02-03 11:55:00,37.9,21.8,30.16,South,180,7.0,9.0,52,0.00,,,0.00,Weather View 32 v70,2013-02-03 17:55:00,
2013-02-03 12:00:00,37.8,22.6,30.16,South,180,7.0,11.0,54,0.00,,,0.00,Weather View 32 v70,2013-02-03 18:00:00,
2013-02-03 12:05:00,38.1,22.9,30.15,SSW,202,6.0,11.0,54,0.00,,,0.00,Weather View 32 v70,2013-02-03 18:05:00,
2013-02-03 12:10:00,38.3,23.1,30.15,SSE,157,2.0,11.0,54,0.00,,,0.00,Weather View 32 v70,2013-02-03 18:10:00,
2013-02-03 12:15:00,38.8,24.0,30.14,South,180,6.0,11.0,55,0.00,,,0.00,Weather View 32 v70,2013-02-03 18:15:00,
2013-02-03 12:20:00,39.2,23.5,30.14,South,180,1.0,11.0,53,0.00,,,0.00,Weather View 32 v70,2013-02-03 18:20:00,
2013-02-03 12:25:00,39.5,23.3,30.14,South,180,8.0,14.0,52,0.00,,,0.00,Weather View 32 v70,2013-02-03 18:25:00,
2013-02-03 12:30:00,39.5,23.3,30.14,SSW,202,9.0,14.0,52,0.00,,,0.00,Weather View 32 v70,2013-02-03 18:30:00,
2013-02-03 12:35:00,39.6,22.9,30.13,SSW,202,6.0,14.0,51,0.00,,,0.00,Weather View 32 v70,2013-02-03 18:35:00,
2013-02-03 12:40:00,39.8,24.0,30.12,South,180,1.0,14.0,53,0.00,,,0.00,Weather View 32 v70,2013-02-03 18:40:00,
2013-02-03 12:45:00,40.7,24.0,30.12,South,180,7.0,14.0,51,0.00,,,0.00,Weather View 32 v70,2013-02-03 18:45:00,
2013-02-03 12:50:00,40.6,23.9,30.12,SSW,202,7.0,14.0,51,0.00,,,0.00,Weather View 32 v70,2013-02-03 18:50:00,
2013-02-03 12:55:00,41.0,25.2,30.12,South,180,2.0,14.0,53,0.00,,,0.00,Weather View 32 v70,2013-02-03 18:55:00,
2013-02-03 13:00:00,41.4,24.6,30.11,SSW,202,5.0,14.0,51,0.00,,,0.00,Weather View 32 v70,2013-02-03 19:00:00,
2013-02-03 13:05:00,41.5,24.2,30.10,South,180,8.0,14.0,50,0.00,,,0.00,Weather View 32 v70,2013-02-03 19:05:00,
2013-02-03 13:10:00,42.1,24.3,30.10,South,180,6.0,14.0,49,0.00,,,0.00,Weather View 32 v70,2013-02-03 19:10:00,
2013-02-03 13:15:00,42.5,25.6,30.10,South,180,7.0,14.0,51,0.00,,,0.00,Weather View 32 v70,2013-02-03 19:15:00,
2013-02-03 13:20:00,42.6,25.2,30.09,SW,225,5.0,15.0,50,0.00,,,0.00,Weather View 32 v70,2013-02-03 19:20:00,
2013-02-03 13:25:00,42.9,25.0,30.08,SSW,202,7.0,15.0,49,0.00,,,0.00,Weather View 32 v70,2013-02-03 19:25:00,
2013-02-03 13:30:00,43.3,25.4,30.08,South,180,7.0,15.0,49,0.00,,,0.00,Weather View 32 v70,2013-02-03 19:30:00,
2013-02-03 13:35:00,43.9,26.4,30.08,SSW,202,6.0,15.0,50,0.00,,,0.00,Weather View 32 v70,2013-02-03 19:35:00,
2013-02-03 13:40:00,44.5,27.9,30.07,SSW,202,8.0,18.0,52,0.00,,,0.00,Weather View 32 v70,2013-02-03 19:40:00,
2013-02-03 13:45:00,44.8,27.3,30.07,South,180,7.0,18.0,50,0.00,,,0.00,Weather View 32 v70,2013-02-03 19:45:00,
2013-02-03 13:50:00,45.1,28.0,30.06,South,180,10.0,18.0,51,0.00,,,0.00,Weather View 32 v70,2013-02-03 19:50:00,
2013-02-03 13:55:00,45.2,27.6,30.06,SSW,202,4.0,19.0,50,0.00,,,0.00,Weather View 32 v70,2013-02-03 19:55:00,
2013-02-03 14:00:00,45.5,27.9,30.05,SW,225,6.0,19.0,50,0.00,,,0.00,Weather View 32 v70,2013-02-03 20:00:00,
2013-02-03 14:05:00,45.9,28.8,30.05,SSW,202,11.0,19.0,51,0.00,,,0.00,Weather View 32 v70,2013-02-03 20:05:00,
2013-02-03 14:10:00,46.5,28.3,30.05,SW,225,9.0,19.0,49,0.00,,,0.00,Weather View 32 v70,2013-02-03 20:10:00,
2013-02-03 14:15:00,46.7,28.5,30.04,SSW,202,10.0,19.0,49,0.00,,,0.00,Weather View 32 v70,2013-02-03 20:15:00,
2013-02-03 14:20:00,47.1,28.9,30.04,South,180,9.0,19.0,49,0.00,,,0.00,Weather View 32 v70,2013-02-03 20:20:00,
2013-02-03 14:25:00,47.4,28.7,30.04,SW,225,6.0,19.0,48,0.00,,,0.00,Weather View 32 v70,2013-02-03 20:25:00,
2013-02-03 14:30:00,47.8,29.0,30.04,SSW,202,12.0,22.0,48,0.00,,,0.00,Weather View 32 v70,2013-02-03 20:30:00,
2013-02-03 14:35:00,47.9,29.6,30.03,SSW,202,12.0,22.0,49,0.00,,,0.00,Weather View 32 v70,2013-02-03 20:35:00,
2013-02-03 14:40:00,48.1,29.8,30.03,South,180,9.0,22.0,49,0.00,,,0.00,Weather View 32 v70,2013-02-03 20:40:00,
2013-02-03 14:45:00,48.5,29.7,30.03,SSW,202,4.0,22.0,48,0.00,,,0.00,Weather View 32 v70,2013-02-03 20:45:00,
2013-02-03 14:50:00,48.8,29.4,30.02,South,180,9.0,22.0,47,0.00,,,0.00,Weather View 32 v70,2013-02-03 20:50:00,
2013-02-03 14:55:00,48.9,30.0,30.02,SSW,202,5.0,22.0,48,0.00,,,0.00,Weather View 32 v70,2013-02-03 20:55:00,
2013-02-03 15:00:00,49.3,29.4,30.02,South,180,3.0,22.0,46,0.00,,,0.00,Weather View 32 v70,2013-02-03 21:00:00,
2013-02-03 15:05:00,49.4,28.9,30.02,South,180,6.0,22.0,45,0.00,,,0.00,Weather View 32 v70,2013-02-03 21:05:00,
2013-02-03 15:10:00,49.7,29.7,30.02,SSE,157,4.0,22.0,46,0.00,,,0.00,Weather View 32 v70,2013-02-03 21:10:00,
2013-02-03 15:15:00,49.6,29.6,30.02,South,180,5.0,22.0,46,0.00,,,0.00,Weather View 32 v70,2013-02-03 21:15:00,
2013-02-03 15:20:00,49.6,29.6,30.02,SSW,202,6.0,22.0,46,0.00,,,0.00,Weather View 32 v70,2013-02-03 21:20:00,
2013-02-03 15:25:00,49.6,28.5,30.02,South,180,7.0,22.0,44,0.00,,,0.00,Weather View 32 v70,2013-02-03 21:25:00,
2013-02-03 15:30:00,49.6,29.1,30.01,South,180,5.0,17.0,45,0.00,,,0.00,Weather View 32 v70,2013-02-03 21:30:00,
2013-02-03 15:35:00,49.6,29.1,30.01,South,180,4.0,17.0,45,0.00,,,0.00,Weather View 32 v70,2013-02-03 21:35:00,
2013-02-03 15:40:00,49.9,29.4,30.01,South,180,4.0,17.0,45,0.00,,,0.00,Weather View 32 v70,2013-02-03 21:40:00,
2013-02-03 15:45:00,50.3,29.2,30.00,South,180,6.0,17.0,44,0.00,,,0.00,Weather View 32 v70,2013-02-03 21:45:00,
2013-02-03 15:50:00,50.4,29.3,30.00,SSW,202,11.0,17.0,44,0.00,,,0.00,Weather View 32 v70,2013-02-03 21:50:00,
2013-02-03 15:55:00,50.2,29.1,29.99,SSW,202,11.0,19.0,44,0.00,,,0.00,Weather View 32 v70,2013-02-03 21:55:00,
2013-02-03 16:00:00,50.1,29.0,29.99,South,180,4.0,19.0,44,0.00,,,0.00,Weather View 32 v70,2013-02-03 22:00:00,
2013-02-03 16:05:00,49.9,28.8,29.99,South,180,5.0,19.0,44,0.00,,,0.00,Weather View 32 v70,2013-02-03 22:05:00,
2013-02-03 16:10:00,50.1,29.0,29.98,South,180,6.0,19.0,44,0.00,,,0.00,Weather View 32 v70,2013-02-03 22:10:00,
2013-02-03 16:15:00,50.1,29.5,29.98,SE,135,2.0,19.0,45,0.00,,,0.00,Weather View 32 v70,2013-02-03 22:15:00,
2013-02-03 16:20:00,50.3,29.2,29.98,SSW,202,3.0,19.0,44,0.00,,,0.00,Weather View 32 v70,2013-02-03 22:20:00,
2013-02-03 16:25:00,50.2,29.6,29.97,SSE,157,1.0,19.0,45,0.00,,,0.00,Weather View 32 v70,2013-02-03 22:25:00,
2013-02-03 16:30:00,50.2,30.2,29.97,SE,135,2.0,19.0,46,0.00,,,0.00,Weather View 32 v70,2013-02-03 22:30:00,
2013-02-03 16:35:00,49.9,29.9,29.97,South,180,2.0,19.0,46,0.00,,,0.00,Weather View 32 v70,2013-02-03 22:35:00,
2013-02-03 16:40:00,49.6,29.6,29.96,SSE,157,1.0,19.0,46,0.00,,,0.00,Weather View 32 v70,2013-02-03 22:40:00,
2013-02-03 16:45:00,49.2,29.8,29.96,SE,135,1.0,19.0,47,0.00,,,0.00,Weather View 32 v70,2013-02-03 22:45:00,
2013-02-03 16:50:00,48.5,29.7,29.96,SSW,202,2.0,19.0,48,0.00,,,0.00,Weather View 32 v70,2013-02-03 22:50:00,
2013-02-03 16:55:00,48.1,29.3,29.96,South,180,4.0,12.0,48,0.00,,,0.00,Weather View 32 v70,2013-02-03 22:55:00,
2013-02-03 17:00:00,47.8,29.0,29.96,SSW,202,1.0,12.0,48,0.00,,,0.00,Weather View 32 v70,2013-02-03 23:00:00,
2013-02-03 17:05:00,47.4,29.2,29.96,SE,135,4.0,12.0,49,0.00,,,0.00,Weather View 32 v70,2013-02-03 23:05:00,
2013-02-03 17:10:00,46.9,29.7,29.96,SE,135,4.0,12.0,51,0.00,,,0.00,Weather View 32 v70,2013-02-03 23:10:00,
2013-02-03 17:15:00,46.3,29.6,29.95,SE,135,4.0,10.0,52,0.00,,,0.00,Weather View 32 v70,2013-02-03 23:15:00,
2013-02-03 17:20:00,45.8,30.1,29.95,SE,135,1.0,10.0,54,0.00,,,0.00,Weather View 32 v70,2013-02-03 23:20:00,
2013-02-03 17:25:00,45.3,30.1,29.95,SE,135,7.0,9.0,55,0.00,,,0.00,Weather View 32 v70,2013-02-03 23:25:00,
2013-02-03 17:30:00,44.8,29.6,29.95,SE,135,8.0,10.0,55,0.00,,,0.00,Weather View 32 v70,2013-02-03 23:30:00,
2013-02-03 17:35:00,44.4,29.7,29.95,SE,135,4.0,10.0,56,0.00,,,0.00,Weather View 32 v70,2013-02-03 23:35:00,
2013-02-03 17:40:00,44.0,29.7,29.95,SE,135,2.0,10.0,57,0.00,,,0.00,Weather View 32 v70,2013-02-03 23:40:00,
2013-02-03 17:45:00,43.6,29.8,29.95,SE,135,4.0,10.0,58,0.00,,,0.00,Weather View 32 v70,2013-02-03 23:45:00,
2013-02-03 17:51:00,43.4,30.0,29.94,SSE,157,4.0,10.0,59,0.00,,,0.00,Weather View 32 v70,2013-02-03 23:51:00,
2013-02-03 17:56:00,43.1,30.1,29.94,SE,135,1.0,10.0,60,0.00,,,0.00,Weather View 32 v70,2013-02-03 23:56:00,
2013-02-03 18:01:00,42.8,30.3,29.94,ESE,112,2.0,10.0,61,0.00,,,0.00,Weather View 32 v70,2013-02-04 00:01:00,
2013-02-03 18:06:00,42.6,30.5,29.94,SSW,202,2.0,10.0,62,0.00,,,0.00,Weather View 32 v70,2013-02-04 00:06:00,
2013-02-03 18:11:00,42.4,30.7,29.94,SE,135,2.0,10.0,63,0.00,,,0.00,Weather View 32 v70,2013-02-04 00:11:00,
2013-02-03 18:16:00,42.1,30.8,29.94,SSW,202,1.0,11.0,64,0.00,,,0.00,Weather View 32 v70,2013-02-04 00:16:00,
2013-02-03 18:21:00,41.9,30.6,29.93,SE,135,2.0,11.0,64,0.00,,,0.00,Weather View 32 v70,2013-02-04 00:21:00,
2013-02-03 18:26:00,41.7,30.8,29.93,ESE,112,4.0,11.0,65,0.00,,,0.00,Weather View 32 v70,2013-02-04 00:26:00,
2013-02-03 18:31:00,41.5,31.0,29.93,SE,135,2.0,11.0,66,0.00,,,0.00,Weather View 32 v70,2013-02-04 00:31:00,
2013-02-03 18:36:00,41.4,31.3,29.93,SE,135,2.0,11.0,67,0.00,,,0.00,Weather View 32 v70,2013-02-04 00:36:00,
2013-02-03 18:41:00,41.2,31.1,29.93,SE,135,2.0,11.0,67,0.00,,,0.00,Weather View 32 v70,2013-02-04 00:41:00,
2013-02-03 18:46:00,41.1,31.3,29.93,SE,135,6.0,11.0,68,0.00,,,0.00,Weather View 32 v70,2013-02-04 00:46:00,
2013-02-03 18:51:00,40.9,31.1,29.93,SSE,157,1.0,11.0,68,0.00,,,0.00,Weather View 32 v70,2013-02-04 00:51:00,
2013-02-03 18:56:00,40.8,31.4,29.93,SE,135,2.0,11.0,69,0.00,,,0.00,Weather View 32 v70,2013-02-04 00:56:00,
2013-02-03 19:01:00,40.6,31.2,29.93,South,180,3.0,11.0,69,0.00,,,0.00,Weather View 32 v70,2013-02-04 01:01:00,
2013-02-03 19:06:00,40.3,31.3,29.92,SE,135,4.0,11.0,70,0.00,,,0.00,Weather View 32 v70,2013-02-04 01:06:00,
2013-02-03 19:11:00,40.1,31.1,29.92,SE,135,2.0,11.0,70,0.00,,,0.00,Weather View 32 v70,2013-02-04 01:11:00,
2013-02-03 19:16:00,39.8,31.2,29.92,ESE,112,6.0,11.0,71,0.00,,,0.00,Weather View 32 v70,2013-02-04 01:16:00,
2013-02-03 19:21:00,39.5,31.2,29.92,SE,135,4.0,11.0,72,0.00,,,0.00,Weather View 32 v70,2013-02-04 01:21:00,
2013-02-03 19:26:00,39.4,31.5,29.92,SE,135,6.0,11.0,73,0.00,,,0.00,Weather View 32 v70,2013-02-04 01:26:00,
2013-02-03 19:31:00,39.4,31.1,29.92,SE,135,5.0,11.0,72,0.00,,,0.00,Weather View 32 v70,2013-02-04 01:31:00,
2013-02-03 19:36:00,39.3,31.4,29.92,SSE,157,3.0,11.0,73,0.00,,,0.00,Weather View 32 v70,2013-02-04 01:36:00,
2013-02-03 19:41:00,39.3,31.0,29.92,SSE,157,2.0,11.0,72,0.00,,,0.00,Weather View 32 v70,2013-02-04 01:41:00,
2013-02-03 19:46:00,39.2,31.3,29.92,SE,135,4.0,11.0,73,0.00,,,0.00,Weather View 32 v70,2013-02-04 01:46:00,
2013-02-03 19:51:00,38.9,31.0,29.92,SE,135,4.0,10.0,73,0.00,,,0.00,Weather View 32 v70,2013-02-04 01:51:00,
2013-02-03 19:56:00,38.9,31.0,29.92,SE,135,3.0,10.0,73,0.00,,,0.00,Weather View 32 v70,2013-02-04 01:56:00,
2013-02-03 20:01:00,38.8,30.9,29.92,SE,135,2.0,10.0,73,0.00,,,0.00,Weather View 32 v70,2013-02-04 02:01:00,
2013-02-03 20:06:00,38.6,30.7,29.92,SSE,157,1.0,10.0,73,0.00,,,0.00,Weather View 32 v70,2013-02-04 02:06:00,
2013-02-03 20:11:00,38.4,30.8,29.92,SE,135,0.0,10.0,74,0.00,,,0.00,Weather View 32 v70,2013-02-04 02:11:00,
2013-02-03 20:16:00,38.3,30.7,29.92,SE,135,1.0,10.0,74,0.00,,,0.00,Weather View 32 v70,2013-02-04 02:16:00,
2013-02-03 20:21:00,38.4,30.5,29.92,South,180,2.0,10.0,73,0.00,,,0.00,Weather View 32 v70,2013-02-04 02:21:00,
2013-02-03 20:26:00,38.6,30.7,29.91,SSW,202,0.0,10.0,73,0.00,,,0.00,Weather View 32 v70,2013-02-04 02:26:00,
2013-02-03 20:31:00,38.4,30.5,29.91,SE,135,1.0,10.0,73,0.00,,,0.00,Weather View 32 v70,2013-02-04 02:31:00,
2013-02-03 20:36:00,38.7,30.4,29.91,SSE,157,0.0,8.0,72,0.00,,,0.00,Weather View 32 v70,2013-02-04 02:36:00,
2013-02-03 20:41:00,38.8,30.2,29.91,SSE,157,2.0,8.0,71,0.00,,,0.00,Weather View 32 v70,2013-02-04 02:41:00,
2013-02-03 20:46:00,38.8,30.5,29.91,SSW,202,2.0,7.0,72,0.00,,,0.00,Weather View 32 v70,2013-02-04 02:46:00,
2013-02-03 20:51:00,38.4,30.2,29.91,SSW,202,0.0,7.0,72,0.00,,,0.00,Weather View 32 v70,2013-02-04 02:51:00,
2013-02-03 20:56:00,38.2,30.3,29.91,SSW,202,0.0,6.0,73,0.00,,,0.00,Weather View 32 v70,2013-02-04 02:56:00,
2013-02-03 21:01:00,38.3,30.4,29.91,SE,135,1.0,6.0,73,0.00,,,0.00,Weather View 32 v70,2013-02-04 03:01:00,
2013-02-03 21:06:00,37.9,30.0,29.91,ESE,112,2.0,6.0,73,0.00,,,0.00,Weather View 32 v70,2013-02-04 03:06:00,
2013-02-03 21:11:00,37.7,29.8,29.91,ESE,112,0.0,6.0,73,0.00,,,0.00,Weather View 32 v70,2013-02-04 03:11:00,
2013-02-03 21:16:00,37.4,29.5,29.91,East,90,2.0,6.0,73,0.02,,,0.00,Weather View 32 v70,2013-02-04 03:16:00,
2013-02-03 21:21:00,38.0,29.8,29.91,SE,135,0.0,6.0,72,0.00,,,0.00,Weather View 32 v70,2013-02-04 03:21:00,
2013-02-03 21:26:00,37.9,29.7,29.91,South,180,3.0,6.0,72,0.00,,,0.00,Weather View 32 v70,2013-02-04 03:26:00,
2013-02-03 21:32:00,38.7,30.1,29.91,South,180,2.0,6.0,71,0.00,,,0.00,Weather View 32 v70,2013-02-04 03:32:00,
2013-02-03 21:37:00,38.9,29.9,29.91,SSE,157,2.0,6.0,70,0.00,,,0.00,Weather View 32 v70,2013-02-04 03:37:00,
2013-02-03 21:42:00,39.0,30.0,29.91,South,180,2.0,4.0,70,0.00,,,0.00,Weather View 32 v70,2013-02-04 03:42:00,
2013-02-03 21:47:00,38.9,29.9,29.91,SSW,202,3.0,4.0,70,0.00,,,0.00,Weather View 32 v70,2013-02-04 03:47:00,
2013-02-03 21:52:00,39.2,29.9,29.90,SSW,202,2.0,5.0,69,0.00,,,0.00,Weather View 32 v70,2013-02-04 03:52:00,
2013-02-03 21:57:00,38.9,29.9,29.90,SSW,202,0.0,5.0,70,0.00,,,0.00,Weather View 32 v70,2013-02-04 03:57:00,
2013-02-03 22:02:00,38.4,29.8,29.90,ENE,67,3.0,5.0,71,0.00,,,0.00,Weather View 32 v70,2013-02-04 04:02:00,
2013-02-03 22:07:00,37.6,28.7,29.90,NE,45,2.0,5.0,70,0.00,,,0.00,Weather View 32 v70,2013-02-04 04:07:00,
2013-02-03 22:12:00,37.5,29.6,29.90,NE,45,0.0,5.0,73,0.00,,,0.00,Weather View 32 v70,2013-02-04 04:12:00,
2013-02-03 22:17:00,37.2,30.0,29.90,SSW,202,1.0,5.0,75,0.00,,,0.00,Weather View 32 v70,2013-02-04 04:17:00,
2013-02-03 22:22:00,36.8,29.6,29.90,SSW,202,1.0,5.0,75,0.00,,,0.00,Weather View 32 v70,2013-02-04 04:22:00,
2013-02-03 22:27:00,36.4,28.9,29.90,NE,45,4.0,5.0,74,0.00,,,0.00,Weather View 32 v70,2013-02-04 04:27:00,
2013-02-03 22:32:00,36.7,29.5,29.90,NE,45,0.0,5.0,75,0.00,,,0.00,Weather View 32 v70,2013-02-04 04:32:00,
2013-02-03 22:37:00,36.9,29.4,29.89,NE,45,0.0,5.0,74,0.00,,,0.00,Weather View 32 v70,2013-02-04 04:37:00,
2013-02-03 22:42:00,36.9,29.4,29.89,NE,45,0.0,5.0,74,0.00,,,0.00,Weather View 32 v70,2013-02-04 04:42:00,
2013-02-03 22:47:00,36.7,29.2,29.89,NE,45,1.0,5.0,74,0.00,,,0.00,Weather View 32 v70,2013-02-04 04:47:00,
2013-02-03 22:52:00,36.9,29.0,29.89,NE,45,0.0,4.0,73,0.00,,,0.00,Weather View 32 v70,2013-02-04 04:52:00,
2013-02-03 22:57:00,36.5,29.0,29.90,NE,45,0.0,4.0,74,0.00,,,0.00,Weather View 32 v70,2013-02-04 04:57:00,
2013-02-03 23:00:00,35.9,28.7,29.90,NE,45,0.0,4.0,75,0.00,,,0.00,Weather View 32 v70,2013-02-04 05:00:00,
2013-02-03 23:01:00,35.7,29.2,29.90,NE,45,0.0,4.0,77,0.00,,,0.00,Weather View 32 v70,2013-02-04 05:01:00,
2013-02-03 23:03:00,35.4,28.9,29.90,NE,45,0.0,4.0,77,0.00,,,0.00,Weather View 32 v70,2013-02-04 05:03:00,
2013-02-03 23:08:00,34.8,28.6,29.90,NE,45,0.0,4.0,78,0.00,,,0.00,Weather View 32 v70,2013-02-04 05:08:00,
2013-02-03 23:13:00,34.6,28.8,29.89,NE,45,0.0,4.0,79,0.00,,,0.00,Weather View 32 v70,2013-02-04 05:13:00,
2013-02-03 23:18:00,34.6,28.8,29.90,NE,45,0.0,4.0,79,0.00,,,0.00,Weather View 32 v70,2013-02-04 05:18:00,
2013-02-03 23:23:00,34.1,28.9,29.90,NW,315,2.0,4.0,81,0.00,,,0.00,Weather View 32 v70,2013-02-04 05:23:00,
2013-02-03 23:28:00,34.1,28.6,29.90,West,270,4.0,6.0,80,0.00,,,0.00,Weather View 32 v70,2013-02-04 05:28:00,
2013-02-03 23:33:00,33.9,29.9,29.90,WNW,292,8.0,9.0,85,0.00,,,0.00,Weather View 32 v70,2013-02-04 05:33:00,
2013-02-03 23:38:00,33.4,29.9,29.90,WNW,292,3.0,9.0,87,0.00,,,0.00,Weather View 32 v70,2013-02-04 05:38:00,
2013-02-03 23:43:00,32.8,29.6,29.90,West,270,5.0,9.0,88,0.00,,,0.00,Weather View 32 v70,2013-02-04 05:43:00,
2013-02-03 23:48:00,32.1,29.8,29.90,West,270,4.0,9.0,91,0.00,,,0.00,Weather View 32 v70,2013-02-04 05:48:00,
2013-02-03 23:53:00,31.5,29.7,29.91,WNW,292,5.0,9.0,93,0.00,,,0.00,Weather View 32 v70,2013-02-04 05:53:00,
2013-02-03 23:58:00,31.0,29.7,29.91,WNW,292,5.0,9.0,95,0.00,,,0.00,Weather View 32 v70,2013-02-04 05:58:00,